Time;durP1;ratioP1;P1;durP2;ratioP2;P2;SDS_P1;SDS_P2;PMS_P1;PMS_P2;Temp;Humidity;BMP_temperature;BMP_pressure;BME280_temperature;BME280_humidity;BME280_pressure;Samples;Min_cycle;Max_cycle;Signal;HPM_P1;HPM_P2
2021/08/20 00:06:02;;;;;;;0.83;0.83;;;22.20;99.90;;;;;;20755645;28;20463;-80
2021/08/20 00:16:06;;;;;;;1.10;0.47;;;22.20;99.90;;;;;;20758096;28;20201;-82
2021/08/20 00:26:11;;;;;;;0.67;0.53;;;22.20;99.90;;;;;;20778202;28;20233;-82
2021/08/20 00:36:15;;;;;;;1.13;1.07;;;22.30;99.90;;;;;;20762043;28;20275;-79
2021/08/20 00:46:20;;;;;;;0.87;0.83;;;22.20;99.90;;;;;;20781503;28;20253;-78
2021/08/20 00:56:25;;;;;;;0.30;0.30;;;22.10;99.90;;;;;;20759936;28;20194;-82
2021/08/20 01:06:31;;;;;;;0.70;0.67;;;22.00;99.90;;;;;;20754651;23;20249;-76
2021/08/20 01:16:35;;;;;;;0.97;0.90;;;22.10;99.90;;;;;;20696301;28;20198;-76
2021/08/20 01:26:40;;;;;;;1.20;0.70;;;21.90;99.90;;;;;;20702798;28;20218;-77
2021/08/20 01:36:44;;;;;;;1.20;0.43;;;21.90;99.90;;;;;;20722193;28;20210;-76
2021/08/20 01:46:50;;;;;;;0.50;0.50;;;21.80;99.90;;;;;;20709921;28;20250;-76
2021/08/20 01:56:54;;;;;;;0.93;0.70;;;21.90;99.90;;;;;;20708222;28;20191;-77
2021/08/20 02:06:59;;;;;;;1.10;0.60;;;22.10;99.90;;;;;;20782862;23;20237;-81
2021/08/20 02:17:02;;;;;;;11.53;0.87;;;22.20;99.90;;;;;;20789210;28;20198;-80
2021/08/20 02:27:09;;;;;;;1.07;0.47;;;22.20;99.90;;;;;;20785435;28;20248;-82
2021/08/20 02:37:13;;;;;;;0.83;0.73;;;22.30;99.90;;;;;;20788488;28;20281;-82
2021/08/20 02:47:18;;;;;;;1.27;0.93;;;22.30;99.90;;;;;;20788590;28;20256;-85
2021/08/20 02:57:23;;;;;;;0.73;0.60;;;22.40;99.90;;;;;;20787303;28;20202;-77
2021/08/20 03:07:28;;;;;;;0.40;0.30;;;22.30;99.90;;;;;;20781517;28;20241;-82
2021/08/20 03:17:31;;;;;;;1.00;0.70;;;22.20;99.90;;;;;;20780799;28;20667;-82
2021/08/20 03:27:36;;;;;;;0.70;0.50;;;22.20;99.90;;;;;;20769778;28;20232;-83
2021/08/20 03:37:40;;;;;;;1.67;1.57;;;22.20;99.90;;;;;;20767836;28;20213;-81
2021/08/20 03:47:45;;;;;;;1.93;1.13;;;22.30;99.90;;;;;;20752559;28;20218;-82
2021/08/20 03:57:49;;;;;;;0.57;0.57;;;22.20;99.90;;;;;;20775010;28;20195;-75
2021/08/20 04:07:57;;;;;;;0.50;0.13;;;22.00;99.90;;;;;;20850299;23;20245;-78
2021/08/20 04:18:00;;;;;;;1.37;0.47;;;21.90;99.90;;;;;;20842782;28;20541;-76
2021/08/20 04:28:06;;;;;;;0.23;0.23;;;21.90;99.90;;;;;;20859147;28;20501;-76
2021/08/20 04:38:12;;;;;;;0.80;0.73;;;22.00;99.90;;;;;;20840385;28;20201;-78
2021/08/20 04:48:17;;;;;;;0.93;0.40;;;21.90;99.90;;;;;;20839986;28;20244;-77
2021/08/20 04:58:21;;;;;;;0.63;0.63;;;21.90;99.90;;;;;;20853443;28;20654;-76
2021/08/20 05:08:27;;;;;;;0.83;0.73;;;22.00;99.90;;;;;;20855763;28;20286;-76
2021/08/20 05:18:30;;;;;;;0.60;0.60;;;21.90;99.90;;;;;;20854920;28;20188;-75
2021/08/20 05:28:36;;;;;;;0.73;0.60;;;21.80;99.90;;;;;;20855308;28;20612;-76
2021/08/20 05:38:40;;;;;;;0.40;0.40;;;22.10;99.90;;;;;;20857512;28;20202;-76
2021/08/20 05:48:45;;;;;;;0.52;0.52;;;22.30;99.90;;;;;;20858528;28;20225;-79
2021/08/20 05:58:52;;;;;;;0.70;0.70;;;22.30;99.90;;;;;;20840070;28;20277;-76
2021/08/20 06:08:57;;;;;;;0.80;0.80;;;22.40;99.90;;;;;;20869816;28;20229;-75
2021/08/20 06:19:02;;;;;;;0.60;0.60;;;22.40;99.90;;;;;;20870802;28;20940;-75
2021/08/20 06:29:07;;;;;;;0.73;0.73;;;22.80;99.90;;;;;;20867645;28;20225;-74
2021/08/20 06:39:10;;;;;;;0.70;0.70;;;23.10;99.90;;;;;;20868549;28;20205;-75
2021/08/20 06:49:16;;;;;;;0.52;0.52;;;23.50;99.90;;;;;;20868352;28;20228;-74
2021/08/20 06:59:20;;;;;;;7.32;1.23;;;24.00;99.90;;;;;;20863538;28;20613;-75
2021/08/20 07:09:26;;;;;;;0.40;0.40;;;24.20;99.90;;;;;;20865958;28;20233;-75
2021/08/20 07:19:29;;;;;;;1.92;1.75;;;24.60;99.90;;;;;;20866188;28;20294;-74
2021/08/20 07:29:34;;;;;;;0.30;0.22;;;24.60;99.90;;;;;;20867164;28;20240;-75
2021/08/20 07:39:39;;;;;;;7.03;2.42;;;24.70;99.90;;;;;;20862162;28;20200;-76
2021/08/20 07:49:44;;;;;;;2.08;0.75;;;24.80;99.90;;;;;;20850018;28;20570;-75
2021/08/20 07:59:48;;;;;;;0.47;0.45;;;24.80;99.90;;;;;;20858068;28;20701;-72
2021/08/20 08:09:53;;;;;;;0.50;0.43;;;25.20;99.90;;;;;;20842877;28;20237;-76
2021/08/20 08:19:57;;;;;;;0.93;0.75;;;25.20;99.90;;;;;;20858814;28;20213;-75
2021/08/20 08:30:04;;;;;;;1.50;1.40;;;25.60;99.90;;;;;;20760669;28;20219;-74
2021/08/20 08:40:08;;;;;;;2.78;1.38;;;25.50;99.90;;;;;;20774641;28;20225;-75
2021/08/20 08:50:14;;;;;;;1.33;0.60;;;25.70;99.90;;;;;;20772543;28;20228;-76
2021/08/20 09:00:30;;;;;;;1.13;0.63;;;25.70;99.90;;;;;;20796320;28;20225;-74
2021/08/20 09:10:36;;;;;;;0.52;0.45;;;25.80;99.90;;;;;;20838035;28;20228;-75
2021/08/20 09:20:39;;;;;;;2.63;1.13;;;26.00;99.90;;;;;;20854871;28;20236;-72
2021/08/20 09:30:59;;;;;;;1.42;1.17;;;26.20;99.90;;;;;;20852729;28;20221;-73
2021/08/20 09:41:25;;;;;;;2.42;1.40;;;26.50;99.90;;;;;;20793869;28;20198;-71
2021/08/20 09:51:52;;;;;;;1.85;0.82;;;26.60;99.90;;;;;;20807025;28;20273;-72
2021/08/20 10:02:24;;;;;;;0.70;0.65;;;26.80;99.90;;;;;;20804591;28;20233;-72
2021/08/20 10:12:30;;;;;;;0.80;0.80;;;26.70;99.90;;;;;;20785113;28;20320;-73
2021/08/20 10:22:38;;;;;;;0.82;0.70;;;26.60;99.90;;;;;;20807844;28;20305;-72
2021/08/20 10:33:08;;;;;;;0.73;0.65;;;26.90;99.90;;;;;;20868075;28;20702;-74
2021/08/20 10:43:48;;;;;;;3.10;1.27;;;27.50;99.90;;;;;;20867808;28;20272;-74
2021/08/20 10:53:53;;;;;;;2.35;1.67;;;27.70;99.90;;;;;;20865681;28;20225;-74
2021/08/20 11:03:57;;;;;;;1.50;1.40;;;28.20;99.90;;;;;;20861858;28;20264;-72
2021/08/20 11:14:25;;;;;;;0.93;0.65;;;28.60;99.90;;;;;;20730360;23;21114;-72
2021/08/20 11:24:29;;;;;;;1.33;0.75;;;29.30;99.90;;;;;;20623577;28;20203;-73
2021/08/20 11:34:34;;;;;;;1.45;1.25;;;30.20;99.90;;;;;;20607743;28;20228;-73
2021/08/20 11:44:41;;;;;;;2.28;1.38;;;29.80;99.90;;;;;;20596524;28;20206;-73
2021/08/20 11:54:46;;;;;;;1.13;0.50;;;28.80;99.90;;;;;;20583281;28;20323;-75
2021/08/20 12:04:50;;;;;;;0.75;0.70;;;29.00;99.90;;;;;;20594035;28;20207;-73
2021/08/20 12:14:55;;;;;;;1.40;0.82;;;28.60;99.90;;;;;;20583736;28;20310;-73
2021/08/20 12:24:59;;;;;;;2.42;1.58;;;28.70;99.90;;;;;;20642843;28;20203;-75
2021/08/20 12:35:06;;;;;;;11.80;0.85;;;28.00;99.90;;;;;;20695384;28;20198;-74
2021/08/20 12:45:28;;;;;;;3.20;1.48;;;27.80;99.90;;;;;;20695548;28;20218;-72
2021/08/20 12:55:36;;;;;;;3.38;1.90;;;29.60;99.90;;;;;;20693658;28;20238;-72
2021/08/20 13:05:51;;;;;;;1.05;0.90;;;28.50;99.90;;;;;;20664095;28;20226;-74
2021/08/20 13:16:00;;;;;;;2.28;1.30;;;29.80;99.90;;;;;;20693292;28;20234;-74
2021/08/20 13:26:11;;;;;;;0.60;0.50;;;30.60;99.90;;;;;;20709480;28;20222;-72
2021/08/20 13:36:16;;;;;;;0.60;0.50;;;29.30;99.90;;;;;;20719141;28;20201;-75
2021/08/20 13:46:20;;;;;;;0.73;0.63;;;30.50;99.90;;;;;;20716009;28;20218;-75
2021/08/20 13:56:26;;;;;;;1.00;0.82;;;30.30;99.90;;;;;;20687464;28;20214;-71
2021/08/20 14:06:31;;;;;;;1.20;1.00;;;30.00;99.90;;;;;;20669571;28;20229;-73
2021/08/20 14:16:37;;;;;;;0.80;0.80;;;30.20;99.90;;;;;;20642658;28;20752;-70
2021/08/20 14:26:41;;;;;;;1.02;0.93;;;30.60;99.90;;;;;;20623865;28;20219;-71
2021/08/20 14:36:46;;;;;;;1.00;0.88;;;30.00;99.90;;;;;;20624188;28;20582;-73
2021/08/20 14:46:50;;;;;;;4.15;2.65;;;32.70;99.90;;;;;;20619935;28;20219;-73
2021/08/20 14:56:55;;;;;;;2.55;1.10;;;34.00;99.90;;;;;;20620790;28;20331;-73
2021/08/20 15:06:59;;;;;;;2.17;1.52;;;34.70;99.90;;;;;;20651628;28;20707;-73
2021/08/20 15:17:05;;;;;;;0.93;0.85;;;34.70;99.90;;;;;;20697867;28;20626;-73
2021/08/20 15:27:09;;;;;;;1.02;0.82;;;34.40;99.90;;;;;;20699225;28;20304;-73
2021/08/20 15:37:14;;;;;;;1.95;1.13;;;34.40;99.90;;;;;;20703267;28;20195;-72
2021/08/20 15:47:21;;;;;;;2.67;1.42;;;32.90;99.90;;;;;;20698431;28;20218;-75
2021/08/20 15:57:26;;;;;;;0.88;0.88;;;31.10;99.90;;;;;;20701651;28;20194;-72
2021/08/20 16:07:33;;;;;;;1.08;0.77;;;30.50;99.90;;;;;;20683828;28;20313;-73
2021/08/20 16:17:38;;;;;;;1.70;1.00;;;30.00;99.90;;;;;;20700521;28;20232;-75
2021/08/20 16:27:42;;;;;;;1.20;1.15;;;29.70;99.90;;;;;;20779397;23;20241;-74
2021/08/20 16:48:05;;;;;;;1.38;1.10;;;28.60;99.90;;;;;;20954921;23;20690;-78
2021/08/20 16:58:13;;;;;;;2.42;1.65;;;28.50;99.90;;;;;;20776960;28;21023;-81
2021/08/20 17:08:18;;;;;;;2.25;1.27;;;28.10;99.90;;;;;;20796283;28;20302;-79
2021/08/20 17:18:22;;;;;;;0.57;0.57;;;28.10;99.90;;;;;;20780369;28;20228;-86
2021/08/20 17:28:27;;;;;;;2.92;1.25;;;28.80;99.90;;;;;;20773034;28;20312;-79
2021/08/20 17:38:31;;;;;;;4.95;1.13;;;30.10;99.90;;;;;;20775975;28;20198;-80
2021/08/20 17:48:36;;;;;;;1.10;1.00;;;29.60;99.90;;;;;;20775272;28;20336;-81
2021/08/20 17:58:41;;;;;;;1.13;0.90;;;28.60;99.90;;;;;;20725519;28;20217;-80
2021/08/20 18:08:46;;;;;;;1.08;0.68;;;27.50;99.90;;;;;;20776896;28;20226;-85
2021/08/20 18:18:49;;;;;;;4.95;2.10;;;26.90;99.90;;;;;;20763994;28;20202;-85
2021/08/20 18:28:55;;;;;;;6.60;1.02;;;26.80;99.90;;;;;;20727309;28;20249;-84
2021/08/20 18:38:59;;;;;;;1.52;1.30;;;26.50;99.90;;;;;;20693828;28;20332;-81
2021/08/20 18:49:06;;;;;;;5.97;2.05;;;26.40;99.90;;;;;;22455374;22;20650;-82
2021/08/20 18:59:10;;;;;;;1.23;0.65;;;26.20;99.90;;;;;;20657346;28;20646;-85
2021/08/20 19:09:15;;;;;;;0.63;0.60;;;26.30;99.90;;;;;;20632626;28;20227;-86
2021/08/20 19:19:19;;;;;;;0.98;0.77;;;26.10;99.90;;;;;;20705049;28;20195;-77
2021/08/20 19:29:24;;;;;;;1.45;1.02;;;26.10;99.90;;;;;;20707043;28;21163;-81
2021/08/20 19:39:28;;;;;;;3.30;0.95;;;26.00;99.90;;;;;;20705686;28;20205;-84
2021/08/20 19:49:33;;;;;;;0.65;0.55;;;25.90;99.90;;;;;;20715984;28;20310;-82
2021/08/20 19:59:37;;;;;;;0.90;0.52;;;25.80;99.90;;;;;;20685186;28;20279;-84
2021/08/20 20:09:42;;;;;;;9.38;4.53;;;25.60;99.90;;;;;;20609686;28;20318;-81
2021/08/20 20:19:45;;;;;;;0.80;0.80;;;25.40;99.90;;;;;;20629375;28;20208;-84
2021/08/20 20:29:51;;;;;;;2.55;1.17;;;25.20;99.90;;;;;;20649843;28;20222;-86
2021/08/20 20:39:54;;;;;;;1.77;1.02;;;25.20;99.90;;;;;;20668310;28;20663;-88
2021/08/20 20:50:00;;;;;;;1.67;1.05;;;24.80;99.90;;;;;;20698582;28;20241;-84
2021/08/20 21:00:04;;;;;;;1.63;0.87;;;24.60;99.90;;;;;;22260498;23;20218;-86
2021/08/20 21:10:11;;;;;;;1.38;1.08;;;24.50;99.90;;;;;;20507593;23;20240;-79
2021/08/20 21:20:15;;;;;;;1.92;0.88;;;24.50;99.90;;;;;;20456916;29;20260;-80
2021/08/20 21:30:20;;;;;;;3.70;1.23;;;24.40;99.90;;;;;;22223052;22;20246;-84
2021/08/20 21:40:24;;;;;;;1.05;0.98;;;24.40;99.90;;;;;;20697738;28;20290;-80
2021/08/20 21:50:29;;;;;;;1.08;0.77;;;24.30;99.90;;;;;;20721399;28;20686;-86
2021/08/20 22:00:32;;;;;;;0.77;0.77;;;24.20;99.90;;;;;;20729462;28;20753;-84
2021/08/20 22:10:41;;;;;;;1.27;1.02;;;24.00;99.90;;;;;;20729937;28;20222;-87
2021/08/20 22:20:45;;;;;;;2.13;1.02;;;24.00;99.90;;;;;;20719938;28;20588;-88
2021/08/20 22:30:50;;;;;;;3.38;0.82;;;23.80;99.90;;;;;;20716811;28;20230;-87
2021/08/20 22:40:54;;;;;;;0.93;0.80;;;23.70;99.90;;;;;;20750274;28;20199;-84
2021/08/20 22:51:02;;;;;;;0.85;0.75;;;23.50;99.90;;;;;;20743728;28;20226;-88
2021/08/20 23:01:06;;;;;;;1.15;0.85;;;23.50;99.90;;;;;;20757602;28;20206;-83
2021/08/20 23:11:11;;;;;;;1.55;1.35;;;23.40;99.90;;;;;;20801068;28;20230;-81
2021/08/20 23:21:15;;;;;;;0.55;0.43;;;23.30;99.90;;;;;;20788679;28;20206;-77
2021/08/20 23:31:20;;;;;;;1.70;1.05;;;23.20;99.90;;;;;;20784409;28;20233;-77
2021/08/20 23:41:24;;;;;;;1.23;0.90;;;23.10;99.90;;;;;;20762225;28;20198;-79
2021/08/20 23:51:29;;;;;;;1.87;1.73;;;23.10;99.90;;;;;;20782336;28;20243;-79
